SAV weather

Savannah Hilton Head International Airport
Savannah, Georgia, United States

Public forecast

Using degrees Fahrenheit for public forecast. Weather courtesy of forecast.io.

Current aviation weather report (METAR) for Savannah Hilton Head International Airport

Retrieved 2019/10/16 22:53 UTC (49 minutes ago):

KSAV 162253Z 29007KT 10SM FEW046 FEW065 SCT200 26/19 A2975 RMK AO2 SLP074 T02560194

Aviation forecast (TAF) for Savannah Hilton Head International Airport

Retrieved 2019/10/16 18:00 UTC (6 hours ago):

TAF COR KSAV 161756Z 1618/1718 27012G20KT P6SM SCT025 BKN035 FM162000 28012G19KT P6SM SCT035 FM170000 30005KT P6SM SKC